Latest Coastal Weather Observations for Cooktown

IDQ60701

Issued at 9:55 am EST Saturday 20 September 2014 (issued every 10 minutes, with the page automatically refreshed every 10 minutes)

About coastal observations | Map of coastal stations | Coastal observations for QLD | Marine services | Other Formats
Station Details ID: 031209 Name: COOKTOWN AIRPORT Lat: -15.45 Lon: 145.19 Height: 4.8 m
Data from the previous 72 hours. | See also: Recent months at Cooktown
Date/Time
EST
Temp

°C
Wind Pressure Rain
since 9am
mm
Weather Cloud Vis
km
Sea
Height
m
Swell
Dir
 
Speed
knots
Gust
knots
hPa Trend Height
m
Period
s
Dir
20/09:30am 25.5 SE 10 16 1017.3 - 0.0 - Partly cloudy 10 - - - -
20/09:00am 25.0 ESE 12 20 1017.1 R 0.0 Fine Mostly clear 40 - - - -
20/08:30am 25.8 ESE 9 13 1017.1 - 0.0 - Partly cloudy 10 - - - -
20/08:00am 24.7 SE 7 10 1016.7 - 0.0 - Partly cloudy 10 - - - -
20/07:30am 23.5 SE 5 9 1016.5 - 0.0 - - 10 - - - -
20/07:00am 22.0 SSE 3 5 1016.0 - 0.0 - - 10 - - - -
20/06:30am 21.7 SSE 4 7 1015.4 - 0.0 - - 10 - - - -
20/06:00am 21.4 SSE 3 6 1014.9 - 0.0 - - 10 - - - -
20/05:30am 21.8 SE 5 7 1014.8 - 0.0 - - 10 - - - -
20/05:00am 22.0 SE 6 8 1014.8 - 0.0 - Partly cloudy 10 - - - -
20/04:30am 21.7 SE 5 7 1014.6 - 0.0 - - 10 - - - -
20/04:00am 21.8 SE 5 8 1014.5 - 0.0 - Partly cloudy 10 - - - -
20/03:30am 22.1 SE 6 8 1014.5 - 0.0 - Partly cloudy 10 - - - -
20/03:00am 22.3 ESE 7 14 1014.8 - 0.0 - Cloudy 10 - - - -
20/02:30am 22.7 ESE 8 15 1015.1 - 0.0 - Partly cloudy 10 - - - -
20/02:00am 22.4 ESE 7 10 1015.4 - 0.0 - Partly cloudy 10 - - - -
20/01:30am 22.8 ESE 8 15 1015.7 - 0.0 - Partly cloudy 10 - - - -
20/01:00am 22.9 ESE 8 13 1016.0 - 0.0 - Partly cloudy 10 - - - -
20/12:30am 23.0 ESE 9 13 1016.4 - 0.0 - Partly cloudy 10 - - - -
20/12:00am 23.0 ESE 9 15 1016.6 - 0.0 - Cloudy 10 - - - -
 
Date/Time
EST
Temp

°C
Wind Pressure Rain
since 9am
mm
Weather Cloud Vis
km
Sea
Height
m
Swell
Dir
 
Speed
knots
Gust
knots
hPa Trend Height
m
Period
s
Dir
19/11:30pm 22.9 ESE 9 15 1017.0 - 0.0 - Partly cloudy 10 - - - -
19/11:00pm 22.9 ESE 10 15 1017.0 - 0.0 - Partly cloudy 10 - - - -
19/10:30pm 22.9 ESE 7 14 1017.1 - 0.0 - Partly cloudy 10 - - - -
19/10:00pm 22.9 ESE 10 13 1017.1 - 0.0 - Partly cloudy 10 - - - -
19/09:30pm 23.3 ESE 11 18 1017.1 - 0.0 - Partly cloudy 10 - - - -
19/09:00pm 23.2 ESE 8 17 1016.9 - 0.0 - Cloudy 10 - - - -
19/08:30pm 23.1 ESE 9 14 1016.7 - 0.0 - Partly cloudy 10 - - - -
19/08:00pm 22.9 ESE 8 11 1016.3 - 0.0 - Partly cloudy 10 - - - -
19/07:30pm 22.7 ESE 7 11 1016.1 - 0.0 - Partly cloudy 10 - - - -
19/07:00pm 23.1 ESE 8 13 1015.7 - 0.0 - Partly cloudy 10 - - - -
19/06:30pm 23.2 E 11 15 1015.4 - 0.0 - - 10 - - - -
19/06:00pm 23.6 ESE 12 16 1014.9 - 0.0 - - 10 - - - -
19/05:30pm 24.2 ESE 11 17 1014.6 - 0.0 - - 10 - - - -
19/05:00pm 24.6 ESE 10 16 1014.2 - 0.0 - - 10 - - - -
19/04:30pm 25.8 ESE 11 20 1014.1 - 0.0 - - 10 - - - -
19/04:00pm 25.6 ESE 13 20 1014.0 - 0.0 - - 10 - - - -
19/03:30pm 25.7 ESE 12 18 1014.1 - 0.0 - - 10 - - - -
19/03:00pm 26.7 SE 11 19 1014.3 S 0.0 Fine Mostly clear 40 - - - -
19/02:30pm 26.5 ESE 11 16 1014.8 - 0.0 - Partly cloudy 10 - - - -
19/02:00pm 26.8 ESE 14 19 1015.2 - 0.0 - Partly cloudy 10 - - - -
19/01:30pm 26.9 ESE 15 22 1015.6 - 0.0 - - 10 - - - -
19/01:00pm 27.9 ESE 14 21 1015.8 - 0.0 - Partly cloudy 10 - - - -
19/12:30pm 27.1 ESE 16 23 1016.3 - 0.0 - Partly cloudy 10 - - - -
19/12:00pm 28.0 E 15 21 1016.5 - 0.0 - Cloudy 10 - - - -
19/11:30am 27.3 ESE 15 23 1017.1 - 0.0 - Partly cloudy 10 - - - -
19/11:00am 27.2 ESE 11 20 1017.4 - 0.0 - Partly cloudy 10 - - - -
19/10:30am 26.3 SE 10 16 1017.8 - 0.0 - Partly cloudy 10 - - - -
19/10:00am 26.0 ESE 11 17 1018.0 - 0.0 - Partly cloudy 10 - - - -
19/09:30am 25.3 SE 11 19 1018.0 - 0.0 - Partly cloudy 10 - - - -
19/09:00am 25.0 SE 11 16 1017.7 R 0.0 Fine Partly cloudy 25 - - - -
19/08:31am 23.7 SE 8 12 1017.7 - 0.0 - Partly cloudy 10 - - - -
19/08:30am 23.6 SE 8 12 1017.7 - 0.0 - Partly cloudy 10 - - - -
19/08:00am 20.0 WSW 4 5 1017.4 - 0.0 - - 4 - - - -
19/07:30am 16.7 WNW 4 6 1017.2 - 0.0 - - 2 - - - -
19/07:00am 15.2 WNW 5 6 1016.8 - 0.0 - Partly cloudy 2 - - - -
19/06:30am 13.7 WNW 3 5 1016.4 - 0.0 - Partly cloudy 3 - - - -
19/06:08am 13.3 WNW 3 5 1016.0 - 0.0 - - 5 - - - -
19/06:00am 13.2 WNW 2 3 1015.7 - 0.0 - - 9 - - - -
19/05:48am 13.3 WNW 3 4 1015.7 - 0.0 - - 8 - - - -
19/05:30am 14.0 WNW 3 5 1015.3 - 0.0 - - 5 - - - -
19/05:29am 14.1 WNW 3 5 1015.3 - 0.0 - - 5 - - - -
19/05:00am 13.6 WNW 2 3 1015.0 - 0.0 - - 10 - - - -
19/04:30am 13.9 WNW 3 4 1014.7 - 0.0 - - 10 - - - -
19/04:00am 13.9 WNW 3 4 1014.5 - 0.0 - - 10 - - - -
19/03:30am 14.2 WNW 3 4 1014.6 - 0.0 - - 10 - - - -
19/03:00am 15.0 WNW 3 3 1014.7 - 0.0 - - 10 - - - -
19/02:30am 14.6 CALM 0 0 1014.9 - 0.0 - - 10 - - - -
19/02:00am 14.9 W 3 4 1015.1 - 0.0 - - 10 - - - -
19/01:30am 15.0 W 2 3 1015.4 - 0.0 - - 10 - - - -
19/01:00am 15.3 WNW 3 5 1015.7 - 0.0 - - 10 - - - -
19/12:30am 15.6 WNW 1 4 1015.9 - 0.0 - - 10 - - - -
19/12:00am 16.3 WNW 4 5 1016.3 - 0.0 - - 10 - - - -
 
Date/Time
EST
Temp

°C
Wind Pressure Rain
since 9am
mm
Weather Cloud Vis
km
Sea
Height
m
Swell
Dir
 
Speed
knots
Gust
knots
hPa Trend Height
m
Period
s
Dir
18/11:30pm 16.9 WNW 1 4 1016.5 - 0.0 - - 10 - - - -
18/11:00pm 16.8 W 1 4 1016.8 - 0.0 - - 10 - - - -
18/10:30pm 17.3 WNW 1 4 1016.9 - 0.0 - - 10 - - - -
18/10:00pm 17.9 CALM 0 0 1016.7 - 0.0 - - 10 - - - -
18/09:30pm 18.0 CALM 0 0 1016.6 - 0.0 - - 10 - - - -
18/09:00pm 17.9 CALM 0 0 1016.3 - 0.0 - - 10 - - - -
18/08:30pm 19.5 CALM 0 0 1016.1 - 0.0 - - 10 - - - -
18/08:00pm 20.9 SE 3 4 1015.7 - 0.0 - - 10 - - - -
18/07:30pm 21.4 SE 3 5 1015.5 - 0.0 - - 10 - - - -
18/07:00pm 20.9 E 5 6 1015.2 - 0.0 - - 10 - - - -
18/06:30pm 21.0 E 6 10 1015.0 - 0.0 - - 10 - - - -
18/06:00pm 22.8 ESE 6 7 1014.9 - 0.0 - - 10 - - - -
18/05:30pm 24.4 E 9 12 1015.0 - 0.0 - - 10 - - - -
18/05:00pm 25.2 E 10 12 1014.7 - 0.0 - - 10 - - - -
18/04:30pm 25.9 E 10 14 1014.6 - 0.0 - - 10 - - - -
18/04:00pm 26.4 E 12 14 1014.6 - 0.0 - - 10 - - - -
18/03:30pm 27.3 E 10 13 1014.5 - 0.0 - - 10 - - - -
18/03:00pm 26.8 E 11 15 1014.8 S 0.0 Fine Mostly clear 40 - - - -
18/02:30pm 26.6 E 13 18 1015.1 - 0.0 - - 10 - - - -
18/02:00pm 26.6 E 12 18 1015.5 - 0.0 - - 10 - - - -
18/01:30pm 27.6 E 12 16 1015.8 - 0.0 - - 10 - - - -
18/01:00pm 27.6 E 14 18 1016.1 - 0.0 - - 10 - - - -
18/12:30pm 27.1 E 14 18 1016.7 - 0.0 - - 10 - - - -
18/12:00pm 26.8 E 13 16 1017.0 - 0.0 - - 10 - - - -
18/11:30am 27.4 ESE 11 16 1017.4 - 0.0 - - 10 - - - -
18/11:00am 26.9 ESE 10 16 1017.9 - 0.0 - - 10 - - - -
18/10:30am 26.4 ESE 12 17 1018.1 - 0.0 - - 10 - - - -
18/10:00am 26.0 E 12 16 1018.1 - 0.0 - - 10 - - - -
18/09:30am 25.2 ESE 10 15 1018.1 - 0.0 - Partly cloudy 10 - - - -
18/09:00am 24.7 SE 8 14 1017.7 R 0.0 Fine Mostly clear 40 - - - -
18/08:30am 23.7 SSE 6 10 1017.6 - 0.0 - - 10 - - - -
18/08:00am 21.6 S 4 6 1017.3 - 0.0 - Partly cloudy 10 - - - -
18/07:30am 19.0 W 1 4 1017.1 - 0.0 - Partly cloudy 10 - - - -
18/07:00am 16.6 WNW 3 4 1016.7 - 0.0 - Partly cloudy 10 - - - -
18/06:30am 15.6 CALM 0 0 1016.3 - 0.0 - - 10 - - - -
18/06:00am 15.7 CALM 0 0 1015.8 - 0.0 - Cloudy 10 - - - -
18/05:30am 16.2 WNW 3 4 1015.7 - 0.0 - Partly cloudy 10 - - - -
18/05:00am 16.3 W 3 4 1015.3 - 0.0 - Partly cloudy 10 - - - -
18/04:30am 16.5 CALM 0 0 1015.1 - 0.0 - Partly cloudy 10 - - - -
18/04:00am 16.9 CALM 0 0 1015.1 - 0.0 - Partly cloudy 10 - - - -
18/03:30am 17.2 SSW 1 3 1015.0 - 0.0 - Partly cloudy 10 - - - -
18/03:00am 17.9 SSW 2 4 1015.1 - 0.0 - Cloudy 10 - - - -
18/02:30am 20.2 S 4 5 1015.2 - 0.0 - Partly cloudy 10 - - - -
18/02:00am 21.5 SE 6 8 1015.4 - 0.0 - - 10 - - - -
18/01:30am 21.5 ESE 6 10 1015.8 - 0.0 - - 10 - - - -
18/01:00am 21.6 SE 6 9 1015.9 - 0.0 - - 10 - - - -
18/12:30am 21.9 ESE 8 11 1016.2 - 0.0 - Partly cloudy 10 - - - -
18/12:00am 22.0 ESE 8 12 1016.6 - 0.0 - Cloudy 10 - - - -
 
Date/Time
EST
Temp

°C
Wind Pressure Rain
since 9am
mm
Weather Cloud Vis
km
Sea
Height
m
Swell
Dir
 
Speed
knots
Gust
knots
hPa Trend Height
m
Period
s
Dir
17/11:30pm 21.7 ESE 7 10 1016.6 - 0.0 - - 10 - - - -
17/11:00pm 21.9 ESE 6 9 1016.7 - 0.0 - - 10 - - - -
17/10:30pm 21.6 ESE 5 9 1016.7 - 0.0 - - 10 - - - -
17/10:00pm 22.0 ESE 6 8 1016.8 - 0.0 - - 10 - - - -
17/09:30pm 22.2 ESE 8 12 1016.7 - 0.0 - - 10 - - - -
17/09:00pm 22.2 ESE 9 12 1016.2 - 0.0 - - 10 - - - -
17/08:30pm 22.4 ESE 8 13 1016.0 - 0.0 - - 10 - - - -
17/08:00pm 22.0 ESE 9 14 1015.8 - 0.0 - - 10 - - - -
17/07:30pm 22.2 ESE 10 15 1015.4 - 0.0 - - 10 - - - -
17/07:00pm 22.3 ESE 9 13 1015.0 - 0.0 - - 10 - - - -
17/06:30pm 22.4 ESE 8 11 1014.8 - 0.0 - - 10 - - - -
17/06:00pm 23.0 ESE 7 12 1014.4 - 0.0 - - 10 - - - -
17/05:30pm 24.1 ESE 12 17 1014.3 - 0.0 - - 10 - - - -
17/05:00pm 24.6 E 14 19 1014.2 - 0.0 - - 10 - - - -
17/04:30pm 25.2 ESE 12 17 1014.1 - 0.0 - - 10 - - - -
17/04:00pm 25.9 E 14 17 1014.0 - 0.0 - - 10 - - - -
17/03:30pm 26.0 ESE 11 16 1014.1 - 0.0 - - 10 - - - -
17/03:00pm 26.1 SE 11 18 1013.9 R 0.0 Fine Mostly clear 40 - - - -
17/02:30pm 27.0 ESE 11 16 1014.4 - 0.0 - - 10 - - - -
17/02:00pm 26.9 ESE 14 19 1014.5 - 0.0 - - 10 - - - -
17/01:30pm 27.3 ESE 11 17 1014.9 - 0.0 - - 10 - - - -
17/01:00pm 27.0 SE 11 16 1015.2 - 0.0 - - 10 - - - -
17/12:30pm 26.7 ESE 12 20 1015.4 - 0.0 - Partly cloudy 10 - - - -
17/12:00pm 26.6 ESE 12 19 1015.7 - 0.0 - Cloudy 10 - - - -
17/11:30am 26.0 ESE 13 19 1016.2 - 0.0 - Partly cloudy 10 - - - -
17/11:00am 26.5 ESE 12 17 1016.5 - 0.0 - Partly cloudy 10 - - - -
17/10:30am 25.2 ESE 11 15 1016.9 - 0.0 - Partly cloudy 10 - - - -
17/10:00am 25.8 ESE 11 18 1017.1 - 0.0 - Partly cloudy 10 - - - -

Other Formats:

Comma delimited format used in spreadsheet applications
http://www.bom.gov.au/fwo/IDQ60701/IDQ60701.95283.axf

JavaScript Object Notation format (JSON) in row-major order
http://www.bom.gov.au/fwo/IDQ60701/IDQ60701.95283.json